Overview Statistics Trail Chart Weather Telemetry Raw packets
 

This is the latest recevied weather packets stored in our database for station/object W7TRD. If no packets are shown the sender has not sent any weather packets the latest 10 day(s).

<< 80 81 82 83 84 85 86 >>
Time Temp. Humidity Pressure Rain* Wind** Luminosity Snow
1788036677 18.89° C 74% 1020.1 hPa 0 mm - 157 W/m² -
1788036373 20° C 62% 1020.2 hPa 0 mm - 134 W/m² -
1788036073 21.11° C 55% 1019.9 hPa 0 mm - 205 W/m² -
1788035772 21.11° C 55% 1019.8 hPa 0 mm - 254 W/m² -
1788035468 21.11° C 55% 1019.8 hPa 0 mm - 313 W/m² -
1788035163 21.67° C 55% 1019.6 hPa 0 mm - 246 W/m² -
1788034859 22.22° C 53% 1019.9 hPa 0 mm - 520 W/m² -
1788034555 21.11° C 55% 1020 hPa 0 mm - 366 W/m² -
1788034251 22.22° C 53% 1020 hPa 0 mm - 943 W/m² -
1788033950 21.11° C 53% 1019.9 hPa 0 mm - 686 W/m² -
1788033646 21.11° C 54% 1019.9 hPa 0 mm - 775 W/m² -
1788033345 21.67° C 55% 1020.1 hPa 0 mm - 789 W/m² -
1788033040 21.67° C 56% 1020.1 hPa 0 mm - 835 W/m² -
1788032740 21.67° C 55% 1020 hPa 0 mm - 761 W/m² -
1788032435 20.56° C 59% 1020.1 hPa 0 mm - 735 W/m² -
1788032131 20° C 61% 1020.4 hPa 0 mm - 671 W/m² -
1788031827 20.56° C 62% 1020.3 hPa 0 mm - 139 W/m² -
1788031521 20.56° C 63% 1020.4 hPa 0 mm - 767 W/m² -
1788031221 20° C 63% 1020.5 hPa 0 mm - 686 W/m² -
1788030920 19.44° C 66% 1020.3 hPa 0 mm - 940 W/m² -
1788030620 18.33° C 65% 1020.5 hPa 0 mm - 282 W/m² -
1788030320 18.33° C 65% 1020.6 hPa 0 mm - 258 W/m² -
1788030016 18.89° C 64% 1020.4 hPa 0 mm - 239 W/m² -
1788029710 18.89° C 64% 1020.6 hPa 0 mm - 291 W/m² -
1788029405 18.89° C 65% 1020.5 hPa 0 mm - 359 W/m² -

* Rain latest hour (hover to see other rain measurements)
** Current wind speed in m/s (hover to see current wind gust speed)